Latest  Newer  Older  Last 2 hours animation  Current image  Latest image 
Rain/snow radar  Infrared sat images 
Real-time lightning map

All time is UTC (add 2 hours to UTC in wintertime, 3 hours to UTC in DST for Latvia local time)

2019/08/22 11:50 EVRA 221150Z VRB05KT 9999 SCT043 21/11 Q1027 NOSIG
2019/08/22 11:50 EVLA 221150Z AUTO 25010KT 220V290 9999 SCT033/// 19/11 Q1029
2019/08/22 11:50 EVVA 221150Z AUTO 25011KT 230V290 9999 FEW030 BKN037 19/11 Q1028
2019/08/22 11:50 EYKA 221150Z 30005KT 250V350 9999 SCT041 BKN061 21/11 Q1029
2019/08/22 11:50 EYPA 221150Z VRB04KT 9999 FEW032 20/11 Q1030
2019/08/22 11:50 EYSA 221150Z 24009KT 210V280 9999 SCT042 BKN048 21/11 Q1029 BLU NOSIG
2019/08/22 11:50 EYVI 221150Z 31005KT 240V360 9999 BKN036 20/11 Q1029 NOSIG
2019/08/22 11:50 EEKA 221150Z 27009G20KT 210V320 9999 FEW033 20/09 Q1025
2019/08/22 11:50 EEKE 221150Z 24009KT 190V290 9999 SCT035 19/11 Q1027
2019/08/22 11:50 EEPU 221150Z 24013KT 9999 BKN/// 20/11 Q1025
2019/08/22 11:50 EETN 221150Z 26015KT 9999 SCT034 20/12 Q1024 NOSIG
2019/08/22 11:50 EETU 221150Z 25013KT 9999 FEW039 20/11 Q1025
   RIGA AIRPORT     EVRA               56 55N  023 58E   10   X     T          6 LV
   LIEPAJA INTL     EVLA        26406  56 31N  021 06E    4   X                8 LV
   VENTPILS         EVVA               57 21N  021 33E    6   X                8 LV
   KAUNAS           EYKA               54 54N  023 55E   77   X     T          6 LT
   PALANGA INTL     EYPA               55 55N  021 03E   10   X                6 LT
   SIAULIAI INTL    EYSA               55 54N  023 24E  135   X     T          6 LT
   VILNIUS INTL     EYVI        26730  54 38N  025 17E  197   X     T          6 LT
   KARDLA           EEKA        26116  58 59N  022 50E    4   X                8 EE
   KURESSAARE       EEKE               58 14N  022 31E    4   X                8 EE
   PARNU            EEPU               58 25N  024 28E   14   X                8 EE
   TALLINN          EETN        26038  59 24N  024 49E   40   X     T          8 EE
   TARTU            EETU               58 19N  026 41E   67   X                8 EE

cloud coverage image from sat24.com and METAR data from weather.noaa.gov